Terminal Aerodrome Forecast
Issued by NWS Huntsville, AL

Home | Current Version | Previous Version | Text Only | Print | Product List | Glossary On
Versions: 1 2 3 4 5 6 7 8 9 10 11 12 13 14 15 16 17 18 19 20 21 22 23 24 25 26 27
000
FTUS44 KHUN 250229 AAA
TAFHSV
TAF AMD
KHSV 250229Z 2502/2524 15010KT P6SM VCSH BKN050
     FM250600 15010KT P6SM OVC040
     FM251200 16010KT P6SM OVC030
     FM251900 17010KT P6SM VCSH BKN040=

USA.gov is the U.S. government's official web portal to all federal, state and local government web resources and services.